sensor_id;sensor_type;location;lat;lon;timestamp;pressure;altitude;pressure_sealevel;temperature;humidity
70323;BME280;57735;56.264;43.898;2022-10-17T00:00:21;102121.00;;;4.07;68.59
70323;BME280;57735;56.264;43.898;2022-10-17T00:02:55;102112.38;;;4.04;68.88
70323;BME280;57735;56.264;43.898;2022-10-17T00:05:26;102110.81;;;4.00;69.04
70323;BME280;57735;56.264;43.898;2022-10-17T00:07:57;102107.47;;;3.96;69.06
70323;BME280;57735;56.264;43.898;2022-10-17T00:10:28;102103.09;;;3.95;69.06
70323;BME280;57735;56.264;43.898;2022-10-17T00:12:58;102106.59;;;3.96;69.09
70323;BME280;57735;56.264;43.898;2022-10-17T00:15:29;102102.25;;;3.95;69.00
70323;BME280;57735;56.264;43.898;2022-10-17T00:18:01;102103.31;;;3.91;69.11
70323;BME280;57735;56.264;43.898;2022-10-17T00:20:34;102108.56;;;3.91;69.07
70323;BME280;57735;56.264;43.898;2022-10-17T00:23:05;102103.38;;;3.89;69.05
70323;BME280;57735;56.264;43.898;2022-10-17T00:25:35;102102.50;;;3.89;69.05
70323;BME280;57735;56.264;43.898;2022-10-17T00:28:13;102095.59;;;3.86;69.11
70323;BME280;57735;56.264;43.898;2022-10-17T00:30:44;102094.81;;;3.84;69.30
70323;BME280;57735;56.264;43.898;2022-10-17T00:33:17;102091.41;;;3.82;69.34
70323;BME280;57735;56.264;43.898;2022-10-17T00:35:48;102091.53;;;3.79;69.20
70323;BME280;57735;56.264;43.898;2022-10-17T00:38:19;102090.81;;;3.75;69.42
70323;BME280;57735;56.264;43.898;2022-10-17T00:40:50;102090.00;;;3.73;69.44
70323;BME280;57735;56.264;43.898;2022-10-17T00:43:20;102079.53;;;3.72;69.42
70323;BME280;57735;56.264;43.898;2022-10-17T00:45:51;102092.00;;;3.68;69.36
70323;BME280;57735;56.264;43.898;2022-10-17T00:48:23;102084.16;;;3.67;69.57
70323;BME280;57735;56.264;43.898;2022-10-17T00:50:55;102088.72;;;3.63;69.63
70323;BME280;57735;56.264;43.898;2022-10-17T00:53:26;102091.28;;;3.65;69.43
70323;BME280;57735;56.264;43.898;2022-10-17T00:55:57;102090.38;;;3.66;69.29
70323;BME280;57735;56.264;43.898;2022-10-17T00:58:27;102086.81;;;3.67;69.20
70323;BME280;57735;56.264;43.898;2022-10-17T01:00:58;102087.66;;;3.67;69.06
70323;BME280;57735;56.264;43.898;2022-10-17T01:03:32;102093.78;;;3.68;69.19
70323;BME280;57735;56.264;43.898;2022-10-17T01:06:03;102086.00;;;3.65;69.03
70323;BME280;57735;56.264;43.898;2022-10-17T01:08:34;102096.50;;;3.66;69.04
70323;BME280;57735;56.264;43.898;2022-10-17T01:22:44;102074.81;;;3.60;68.99
70323;BME280;57735;56.264;43.898;2022-10-17T01:25:26;102071.38;;;3.58;68.91
70323;BME280;57735;56.264;43.898;2022-10-17T01:31:13;102066.28;;;3.53;68.99
70323;BME280;57735;56.264;43.898;2022-10-17T01:34:12;102071.66;;;3.52;69.09
70323;BME280;57735;56.264;43.898;2022-10-17T01:36:52;102073.50;;;3.49;69.02
70323;BME280;57735;56.264;43.898;2022-10-17T01:40:02;102072.78;;;3.46;69.12
70323;BME280;57735;56.264;43.898;2022-10-17T01:42:42;102076.31;;;3.45;69.25
70323;BME280;57735;56.264;43.898;2022-10-17T01:45:20;102070.19;;;3.44;69.22
70323;BME280;57735;56.264;43.898;2022-10-17T01:47:55;102068.53;;;3.42;69.34
70323;BME280;57735;56.264;43.898;2022-10-17T01:50:36;102063.34;;;3.40;69.22
70323;BME280;57735;56.264;43.898;2022-10-17T01:53:14;102064.19;;;3.41;69.38
70323;BME280;57735;56.264;43.898;2022-10-17T01:55:50;102067.75;;;3.40;69.19
70323;BME280;57735;56.264;43.898;2022-10-17T01:58:30;102073.16;;;3.37;69.32
70323;BME280;57735;56.264;43.898;2022-10-17T02:01:04;102074.16;;;3.34;69.45
70323;BME280;57735;56.264;43.898;2022-10-17T02:03:39;102070.66;;;3.34;69.33
70323;BME280;57735;56.264;43.898;2022-10-17T02:06:12;102072.44;;;3.33;69.30
70323;BME280;57735;56.264;43.898;2022-10-17T02:08:47;102066.31;;;3.33;69.30
70323;BME280;57735;56.264;43.898;2022-10-17T02:11:24;102070.75;;;3.32;69.35
70323;BME280;57735;56.264;43.898;2022-10-17T02:19:54;102049.59;;;3.34;69.27
70323;BME280;57735;56.264;43.898;2022-10-17T02:22:40;102055.72;;;3.34;69.25
70323;BME280;57735;56.264;43.898;2022-10-17T02:25:26;102046.09;;;3.33;69.11
70323;BME280;57735;56.264;43.898;2022-10-17T02:31:03;102037.34;;;3.33;69.38
70323;BME280;57735;56.264;43.898;2022-10-17T02:33:43;102038.31;;;3.30;69.15
70323;BME280;57735;56.264;43.898;2022-10-17T02:36:20;102035.69;;;3.30;69.10
70323;BME280;57735;56.264;43.898;2022-10-17T02:38:54;102025.13;;;3.30;69.15
70323;BME280;57735;56.264;43.898;2022-10-17T02:41:26;102026.00;;;3.31;69.02
70323;BME280;57735;56.264;43.898;2022-10-17T02:43:57;102030.41;;;3.30;69.18
70323;BME280;57735;56.264;43.898;2022-10-17T02:46:29;102017.16;;;3.32;68.82
70323;BME280;57735;56.264;43.898;2022-10-17T02:49:06;102018.88;;;3.33;68.70
70323;BME280;57735;56.264;43.898;2022-10-17T02:52:00;102039.09;;;3.32;68.78
70323;BME280;57735;56.264;43.898;2022-10-17T02:54:47;102030.28;;;3.33;68.77
70323;BME280;57735;56.264;43.898;2022-10-17T02:57:30;102026.91;;;3.30;68.86
70323;BME280;57735;56.264;43.898;2022-10-17T03:00:04;102032.38;;;3.25;68.99
70323;BME280;57735;56.264;43.898;2022-10-17T03:05:15;102017.56;;;3.23;69.07
70323;BME280;57735;56.264;43.898;2022-10-17T03:07:46;102015.03;;;3.20;69.29
70323;BME280;57735;56.264;43.898;2022-10-17T03:10:17;102026.44;;;3.20;69.05
70323;BME280;57735;56.264;43.898;2022-10-17T03:12:48;102014.19;;;3.19;69.00
70323;BME280;57735;56.264;43.898;2022-10-17T03:15:19;102023.97;;;3.17;69.10
70323;BME280;57735;56.264;43.898;2022-10-17T03:17:50;102010.00;;;3.15;69.36
70323;BME280;57735;56.264;43.898;2022-10-17T03:20:21;102013.56;;;3.14;69.25
70323;BME280;57735;56.264;43.898;2022-10-17T03:22:51;102009.19;;;3.13;69.23
70323;BME280;57735;56.264;43.898;2022-10-17T03:25:22;102017.22;;;3.10;69.34
70323;BME280;57735;56.264;43.898;2022-10-17T03:27:53;102017.34;;;3.07;69.52
70323;BME280;57735;56.264;43.898;2022-10-17T03:30:24;102013.13;;;3.03;69.54
70323;BME280;57735;56.264;43.898;2022-10-17T03:32:56;102016.78;;;3.00;69.77
70323;BME280;57735;56.264;43.898;2022-10-17T03:35:27;102018.63;;;2.98;69.63
70323;BME280;57735;56.264;43.898;2022-10-17T03:37:58;102009.78;;;2.99;69.61
70323;BME280;57735;56.264;43.898;2022-10-17T03:40:29;102003.59;;;3.00;69.62
70323;BME280;57735;56.264;43.898;2022-10-17T03:43:00;102003.59;;;3.00;69.35
70323;BME280;57735;56.264;43.898;2022-10-17T03:45:31;101999.19;;;3.01;69.59
70323;BME280;57735;56.264;43.898;2022-10-17T03:48:04;101995.56;;;3.03;69.39
70323;BME280;57735;56.264;43.898;2022-10-17T03:50:35;101986.72;;;3.04;69.41
70323;BME280;57735;56.264;43.898;2022-10-17T03:53:05;101996.34;;;3.05;69.32
70323;BME280;57735;56.264;43.898;2022-10-17T03:55:36;101988.44;;;3.05;69.41
70323;BME280;57735;56.264;43.898;2022-10-17T03:58:07;101984.03;;;3.06;69.28
70323;BME280;57735;56.264;43.898;2022-10-17T04:00:38;101992.72;;;3.08;69.26
70323;BME280;57735;56.264;43.898;2022-10-17T04:03:09;101989.16;;;3.09;69.17
70323;BME280;57735;56.264;43.898;2022-10-17T04:05:39;101988.19;;;3.11;69.17
70323;BME280;57735;56.264;43.898;2022-10-17T04:08:10;101980.09;;;3.16;68.93
70323;BME280;57735;56.264;43.898;2022-10-17T04:10:41;101979.94;;;3.19;68.81
70323;BME280;57735;56.264;43.898;2022-10-17T04:13:12;101983.28;;;3.23;68.64
70323;BME280;57735;56.264;43.898;2022-10-17T04:15:56;101985.81;;;3.26;68.61
70323;BME280;57735;56.264;43.898;2022-10-17T04:18:27;101982.91;;;3.32;68.34
70323;BME280;57735;56.264;43.898;2022-10-17T04:21:03;101981.06;;;3.34;68.15
70323;BME280;57735;56.264;43.898;2022-10-17T04:23:38;101982.63;;;3.38;68.43
70323;BME280;57735;56.264;43.898;2022-10-17T04:26:09;101972.81;;;3.41;68.06
70323;BME280;57735;56.264;43.898;2022-10-17T04:28:39;101969.19;;;3.44;68.08
70323;BME280;57735;56.264;43.898;2022-10-17T04:31:14;101968.19;;;3.46;67.94
70323;BME280;57735;56.264;43.898;2022-10-17T04:33:51;101971.59;;;3.48;67.86
70323;BME280;57735;56.264;43.898;2022-10-17T04:36:22;101967.03;;;3.52;67.71
70323;BME280;57735;56.264;43.898;2022-10-17T04:38:53;101969.53;;;3.55;67.46
70323;BME280;57735;56.264;43.898;2022-10-17T04:41:26;101964.13;;;3.58;67.29
70323;BME280;57735;56.264;43.898;2022-10-17T04:43:57;101963.94;;;3.63;67.19
70323;BME280;57735;56.264;43.898;2022-10-17T04:46:27;101965.44;;;3.68;66.98
70323;BME280;57735;56.264;43.898;2022-10-17T04:49:01;101963.34;;;3.75;66.84
70323;BME280;57735;56.264;43.898;2022-10-17T04:51:32;101956.09;;;3.80;66.67
70323;BME280;57735;56.264;43.898;2022-10-17T04:54:03;101954.09;;;3.85;66.43
70323;BME280;57735;56.264;43.898;2022-10-17T04:56:34;101949.38;;;3.92;66.29
70323;BME280;57735;56.264;43.898;2022-10-17T04:59:05;101949.09;;;3.98;66.09
70323;BME280;57735;56.264;43.898;2022-10-17T05:01:36;101943.50;;;4.04;66.07
70323;BME280;57735;56.264;43.898;2022-10-17T05:04:06;101941.44;;;4.10;66.01
70323;BME280;57735;56.264;43.898;2022-10-17T05:06:37;101935.94;;;4.15;65.62
70323;BME280;57735;56.264;43.898;2022-10-17T05:09:08;101931.28;;;4.20;65.50
70323;BME280;57735;56.264;43.898;2022-10-17T05:11:39;101924.00;;;4.25;65.29
70323;BME280;57735;56.264;43.898;2022-10-17T05:14:11;101922.84;;;4.31;65.12
70323;BME280;57735;56.264;43.898;2022-10-17T05:16:42;101925.09;;;4.38;64.93
70323;BME280;57735;56.264;43.898;2022-10-17T05:19:13;101924.88;;;4.43;64.77
70323;BME280;57735;56.264;43.898;2022-10-17T05:21:47;101934.28;;;4.48;64.68
70323;BME280;57735;56.264;43.898;2022-10-17T05:24:17;101919.91;;;4.54;64.69
70323;BME280;57735;56.264;43.898;2022-10-17T05:26:51;101911.75;;;4.59;64.51
70323;BME280;57735;56.264;43.898;2022-10-17T05:29:22;101915.97;;;4.63;64.08
70323;BME280;57735;56.264;43.898;2022-10-17T05:31:52;101915.81;;;4.66;64.18
70323;BME280;57735;56.264;43.898;2022-10-17T05:34:23;101907.47;;;4.73;64.12
70323;BME280;57735;56.264;43.898;2022-10-17T05:36:54;101917.59;;;4.82;63.89
70323;BME280;57735;56.264;43.898;2022-10-17T05:39:25;101915.47;;;4.89;63.72
70323;BME280;57735;56.264;43.898;2022-10-17T05:41:56;101916.88;;;4.96;63.71
70323;BME280;57735;56.264;43.898;2022-10-17T05:44:29;101912.03;;;5.04;63.36
70323;BME280;57735;56.264;43.898;2022-10-17T05:47:02;101897.63;;;5.10;63.58
70323;BME280;57735;56.264;43.898;2022-10-17T05:49:33;101897.25;;;5.17;63.16
70323;BME280;57735;56.264;43.898;2022-10-17T05:52:04;101901.09;;;5.28;62.69
70323;BME280;57735;56.264;43.898;2022-10-17T05:54:40;101890.13;;;5.35;62.76
70323;BME280;57735;56.264;43.898;2022-10-17T05:57:11;101894.03;;;5.44;62.58
70323;BME280;57735;56.264;43.898;2022-10-17T05:59:42;101899.00;;;5.50;62.11
70323;BME280;57735;56.264;43.898;2022-10-17T06:02:15;101895.22;;;5.54;62.13
70323;BME280;57735;56.264;43.898;2022-10-17T06:04:46;101899.00;;;5.66;62.07
70323;BME280;57735;56.264;43.898;2022-10-17T06:07:19;101889.63;;;5.76;61.84
70323;BME280;57735;56.264;43.898;2022-10-17T06:09:50;101884.69;;;5.85;61.75
70323;BME280;57735;56.264;43.898;2022-10-17T06:12:21;101886.91;;;5.93;61.01
70323;BME280;57735;56.264;43.898;2022-10-17T06:14:51;101887.25;;;6.03;61.23
70323;BME280;57735;56.264;43.898;2022-10-17T06:17:22;101886.88;;;6.09;60.96
70323;BME280;57735;56.264;43.898;2022-10-17T06:19:53;101882.78;;;6.19;60.96
70323;BME280;57735;56.264;43.898;2022-10-17T06:22:24;101877.97;;;6.25;60.83
70323;BME280;57735;56.264;43.898;2022-10-17T06:24:54;101882.31;;;6.26;60.98
70323;BME280;57735;56.264;43.898;2022-10-17T06:27:25;101880.38;;;6.30;60.90
70323;BME280;57735;56.264;43.898;2022-10-17T06:29:56;101870.63;;;6.30;60.52
70323;BME280;57735;56.264;43.898;2022-10-17T06:32:27;101869.50;;;6.35;60.51
70323;BME280;57735;56.264;43.898;2022-10-17T06:34:58;101874.72;;;6.36;60.79
70323;BME280;57735;56.264;43.898;2022-10-17T06:37:32;101870.91;;;6.40;60.56
70323;BME280;57735;56.264;43.898;2022-10-17T06:40:06;101858.28;;;6.45;60.51
70323;BME280;57735;56.264;43.898;2022-10-17T06:42:42;101858.84;;;6.50;60.32
70323;BME280;57735;56.264;43.898;2022-10-17T06:45:12;101862.06;;;6.55;59.82
70323;BME280;57735;56.264;43.898;2022-10-17T06:47:50;101864.34;;;6.61;59.97
70323;BME280;57735;56.264;43.898;2022-10-17T06:50:21;101870.34;;;6.65;59.77
70323;BME280;57735;56.264;43.898;2022-10-17T06:52:52;101863.16;;;6.67;59.79
70323;BME280;57735;56.264;43.898;2022-10-17T06:55:23;101855.97;;;6.69;59.30
70323;BME280;57735;56.264;43.898;2022-10-17T06:57:55;101858.31;;;6.74;59.07
70323;BME280;57735;56.264;43.898;2022-10-17T07:00:26;101849.91;;;6.81;59.11
70323;BME280;57735;56.264;43.898;2022-10-17T07:02:56;101852.94;;;6.89;58.69
70323;BME280;57735;56.264;43.898;2022-10-17T07:05:30;101847.19;;;6.97;58.62
70323;BME280;57735;56.264;43.898;2022-10-17T07:08:03;101834.41;;;7.04;58.41
70323;BME280;57735;56.264;43.898;2022-10-17T07:10:34;101842.91;;;7.09;58.04
70323;BME280;57735;56.264;43.898;2022-10-17T07:13:08;101833.53;;;7.17;58.37
70323;BME280;57735;56.264;43.898;2022-10-17T07:15:39;101825.09;;;7.25;57.86
70323;BME280;57735;56.264;43.898;2022-10-17T07:18:13;101827.53;;;7.28;57.62
70323;BME280;57735;56.264;43.898;2022-10-17T07:20:53;101814.00;;;7.32;57.78
70323;BME280;57735;56.264;43.898;2022-10-17T07:23:24;101810.00;;;7.40;57.44
70323;BME280;57735;56.264;43.898;2022-10-17T07:26:00;101807.34;;;7.40;57.20
70323;BME280;57735;56.264;43.898;2022-10-17T07:28:33;101812.53;;;7.41;57.44
70323;BME280;57735;56.264;43.898;2022-10-17T07:31:06;101801.75;;;7.44;57.50
70323;BME280;57735;56.264;43.898;2022-10-17T07:33:37;101791.13;;;7.44;57.06
70323;BME280;57735;56.264;43.898;2022-10-17T07:36:08;101788.28;;;7.47;57.12
70323;BME280;57735;56.264;43.898;2022-10-17T07:38:39;101792.75;;;7.47;57.06
70323;BME280;57735;56.264;43.898;2022-10-17T07:41:12;101792.97;;;7.56;57.40
70323;BME280;57735;56.264;43.898;2022-10-17T07:43:43;101782.84;;;7.63;56.90
70323;BME280;57735;56.264;43.898;2022-10-17T07:46:16;101781.78;;;7.65;56.91
70323;BME280;57735;56.264;43.898;2022-10-17T07:48:47;101779.03;;;7.67;56.73
70323;BME280;57735;56.264;43.898;2022-10-17T07:51:18;101771.59;;;7.72;56.97
70323;BME280;57735;56.264;43.898;2022-10-17T07:53:49;101777.47;;;7.77;56.65
70323;BME280;57735;56.264;43.898;2022-10-17T07:56:20;101775.78;;;7.89;56.66
70323;BME280;57735;56.264;43.898;2022-10-17T07:58:54;101775.00;;;8.01;56.52
70323;BME280;57735;56.264;43.898;2022-10-17T08:01:24;101765.00;;;8.04;56.18
70323;BME280;57735;56.264;43.898;2022-10-17T08:03:57;101761.63;;;8.02;56.36
70323;BME280;57735;56.264;43.898;2022-10-17T08:06:28;101763.94;;;8.07;55.93
70323;BME280;57735;56.264;43.898;2022-10-17T08:08:59;101750.34;;;8.12;56.14
70323;BME280;57735;56.264;43.898;2022-10-17T08:11:31;101749.50;;;8.11;55.71
70323;BME280;57735;56.264;43.898;2022-10-17T08:14:02;101747.28;;;8.18;55.70
70323;BME280;57735;56.264;43.898;2022-10-17T08:16:33;101743.69;;;8.19;55.65
70323;BME280;57735;56.264;43.898;2022-10-17T08:19:06;101749.41;;;8.25;55.54
70323;BME280;57735;56.264;43.898;2022-10-17T08:21:38;101742.66;;;8.34;55.35
70323;BME280;57735;56.264;43.898;2022-10-17T08:24:10;101736.81;;;8.42;55.27
70323;BME280;57735;56.264;43.898;2022-10-17T08:26:42;101729.47;;;8.45;55.10
70323;BME280;57735;56.264;43.898;2022-10-17T08:29:15;101727.34;;;8.50;55.14
70323;BME280;57735;56.264;43.898;2022-10-17T08:31:46;101722.34;;;8.58;54.60
70323;BME280;57735;56.264;43.898;2022-10-17T08:34:17;101728.19;;;8.63;54.50
70323;BME280;57735;56.264;43.898;2022-10-17T08:36:48;101714.06;;;8.63;54.29
70323;BME280;57735;56.264;43.898;2022-10-17T08:39:21;101717.44;;;8.65;54.40
70323;BME280;57735;56.264;43.898;2022-10-17T08:42:25;101693.94;;;8.71;53.96
70323;BME280;57735;56.264;43.898;2022-10-17T08:45:20;101688.38;;;8.87;53.91
70323;BME280;57735;56.264;43.898;2022-10-17T08:47:58;101688.13;;;9.03;53.69
70323;BME280;57735;56.264;43.898;2022-10-17T08:53:35;101684.59;;;9.26;52.99
70323;BME280;57735;56.264;43.898;2022-10-17T08:56:18;101675.13;;;9.35;52.95
70323;BME280;57735;56.264;43.898;2022-10-17T08:58:50;101667.50;;;9.41;52.77
70323;BME280;57735;56.264;43.898;2022-10-17T09:01:32;101664.41;;;9.48;52.83
70323;BME280;57735;56.264;43.898;2022-10-17T09:04:42;101647.97;;;9.54;52.58
70323;BME280;57735;56.264;43.898;2022-10-17T09:07:38;101639.78;;;9.68;52.41
70323;BME280;57735;56.264;43.898;2022-10-17T09:10:22;101641.50;;;9.80;51.78
70323;BME280;57735;56.264;43.898;2022-10-17T09:16:17;101619.97;;;9.94;51.71
70323;BME280;57735;56.264;43.898;2022-10-17T09:21:48;101606.16;;;9.89;51.58
70323;BME280;57735;56.264;43.898;2022-10-17T09:25:12;101596.50;;;9.88;51.70
70323;BME280;57735;56.264;43.898;2022-10-17T09:27:34;101592.59;;;9.92;51.99
70323;BME280;57735;56.264;43.898;2022-10-17T09:32:43;101583.53;;;9.95;51.95
70323;BME280;57735;56.264;43.898;2022-10-17T09:35:14;101569.47;;;9.93;52.00
70323;BME280;57735;56.264;43.898;2022-10-17T09:37:45;101575.88;;;9.90;51.69
70323;BME280;57735;56.264;43.898;2022-10-17T09:40:32;101573.50;;;9.87;51.55
70323;BME280;57735;56.264;43.898;2022-10-17T09:43:06;101572.75;;;9.85;51.33
70323;BME280;57735;56.264;43.898;2022-10-17T09:45:45;101575.88;;;9.90;51.62
70323;BME280;57735;56.264;43.898;2022-10-17T09:48:26;101561.13;;;9.97;51.44
70323;BME280;57735;56.264;43.898;2022-10-17T09:51:00;101577.13;;;9.97;51.24
70323;BME280;57735;56.264;43.898;2022-10-17T09:53:39;101568.41;;;9.95;51.08
70323;BME280;57735;56.264;43.898;2022-10-17T09:56:14;101566.22;;;10.00;51.19
70323;BME280;57735;56.264;43.898;2022-10-17T09:58:51;101552.19;;;9.98;51.13
70323;BME280;57735;56.264;43.898;2022-10-17T10:01:27;101551.09;;;10.01;51.05
70323;BME280;57735;56.264;43.898;2022-10-17T10:04:12;101542.47;;;10.08;51.34
70323;BME280;57735;56.264;43.898;2022-10-17T10:07:03;101538.75;;;10.22;50.95
70323;BME280;57735;56.264;43.898;2022-10-17T10:09:35;101533.16;;;10.25;50.96
70323;BME280;57735;56.264;43.898;2022-10-17T10:13:00;101523.97;;;10.29;50.40
70323;BME280;57735;56.264;43.898;2022-10-17T10:15:41;101520.44;;;10.29;50.08
70323;BME280;57735;56.264;43.898;2022-10-17T10:18:36;101516.22;;;10.26;49.99
70323;BME280;57735;56.264;43.898;2022-10-17T10:21:11;101520.81;;;10.24;49.85
70323;BME280;57735;56.264;43.898;2022-10-17T10:23:44;101502.75;;;10.28;49.96
70323;BME280;57735;56.264;43.898;2022-10-17T10:26:24;101499.75;;;10.32;49.71
70323;BME280;57735;56.264;43.898;2022-10-17T10:29:02;101507.50;;;10.35;50.00
70323;BME280;57735;56.264;43.898;2022-10-17T10:31:38;101502.88;;;10.37;50.01
70323;BME280;57735;56.264;43.898;2022-10-17T10:34:24;101505.56;;;10.37;49.48
70323;BME280;57735;56.264;43.898;2022-10-17T10:37:00;101495.13;;;10.34;49.24
70323;BME280;57735;56.264;43.898;2022-10-17T10:39:40;101471.16;;;10.34;49.10
70323;BME280;57735;56.264;43.898;2022-10-17T10:42:33;101483.25;;;10.38;48.78
70323;BME280;57735;56.264;43.898;2022-10-17T10:45:18;101487.25;;;10.33;48.68
70323;BME280;57735;56.264;43.898;2022-10-17T10:47:53;101475.63;;;10.34;48.72
70323;BME280;57735;56.264;43.898;2022-10-17T10:55:35;101467.09;;;10.40;48.83
70323;BME280;57735;56.264;43.898;2022-10-17T11:07:14;101430.50;;;10.42;48.57
70323;BME280;57735;56.264;43.898;2022-10-17T11:10:18;101423.13;;;10.45;48.56
70323;BME280;57735;56.264;43.898;2022-10-17T11:12:59;101417.41;;;10.50;48.67
70323;BME280;57735;56.264;43.898;2022-10-17T11:15:59;101411.72;;;10.55;48.74
70323;BME280;57735;56.264;43.898;2022-10-17T11:18:39;101406.09;;;10.58;48.64
70323;BME280;57735;56.264;43.898;2022-10-17T11:23:58;101401.03;;;10.55;48.79
70323;BME280;57735;56.264;43.898;2022-10-17T11:26:32;101401.03;;;10.55;49.04
70323;BME280;57735;56.264;43.898;2022-10-17T11:29:05;101399.22;;;10.55;49.35
70323;BME280;57735;56.264;43.898;2022-10-17T11:31:45;101392.44;;;10.51;48.66
70323;BME280;57735;56.264;43.898;2022-10-17T11:34:24;101380.34;;;10.47;48.77
70323;BME280;57735;56.264;43.898;2022-10-17T11:36:59;101368.66;;;10.38;48.92
70323;BME280;57735;56.264;43.898;2022-10-17T11:39:43;101376.88;;;10.35;48.94
70323;BME280;57735;56.264;43.898;2022-10-17T11:42:31;101377.00;;;10.34;49.07
70323;BME280;57735;56.264;43.898;2022-10-17T11:45:17;101379.69;;;10.34;49.22
70323;BME280;57735;56.264;43.898;2022-10-17T11:47:52;101371.69;;;10.34;49.42
70323;BME280;57735;56.264;43.898;2022-10-17T11:53:02;101363.94;;;10.31;49.57
70323;BME280;57735;56.264;43.898;2022-10-17T11:55:35;101357.88;;;10.29;49.56
70323;BME280;57735;56.264;43.898;2022-10-17T12:01:16;101355.34;;;10.27;49.33
70323;BME280;57735;56.264;43.898;2022-10-17T12:07:07;101377.41;;;10.18;49.27
70323;BME280;57735;56.264;43.898;2022-10-17T12:09:53;101365.44;;;10.12;48.12
70323;BME280;57735;56.264;43.898;2022-10-17T12:12:31;101366.66;;;10.08;48.23
70323;BME280;57735;56.264;43.898;2022-10-17T12:17:55;101354.34;;;9.96;50.88
70323;BME280;57735;56.264;43.898;2022-10-17T12:20:35;101337.84;;;9.70;54.12
70323;BME280;57735;56.264;43.898;2022-10-17T12:26:02;101338.13;;;9.12;58.49
70323;BME280;57735;56.264;43.898;2022-10-17T12:33:54;101320.22;;;8.69;59.97
70323;BME280;57735;56.264;43.898;2022-10-17T12:46:50;101306.03;;;8.57;60.45
70323;BME280;57735;56.264;43.898;2022-10-17T12:55:13;101293.50;;;8.59;60.51
70323;BME280;57735;56.264;43.898;2022-10-17T12:58:00;101286.00;;;8.64;59.50
70323;BME280;57735;56.264;43.898;2022-10-17T13:00:36;101291.94;;;8.68;59.26
70323;BME280;57735;56.264;43.898;2022-10-17T13:03:15;101294.50;;;8.69;59.71
70323;BME280;57735;56.264;43.898;2022-10-17T13:05:50;101287.81;;;8.64;59.79
70323;BME280;57735;56.264;43.898;2022-10-17T13:08:27;101298.81;;;8.59;60.60
70323;BME280;57735;56.264;43.898;2022-10-17T13:11:01;101297.59;;;8.52;61.66
70323;BME280;57735;56.264;43.898;2022-10-17T13:16:26;101289.59;;;8.41;62.42
70323;BME280;57735;56.264;43.898;2022-10-17T13:18:59;101283.06;;;8.34;62.41
70323;BME280;57735;56.264;43.898;2022-10-17T13:21:30;101272.88;;;8.28;62.36
70323;BME280;57735;56.264;43.898;2022-10-17T13:24:00;101265.84;;;8.27;62.82
70323;BME280;57735;56.264;43.898;2022-10-17T13:26:48;101272.34;;;8.23;63.01
70323;BME280;57735;56.264;43.898;2022-10-17T13:29:19;101268.25;;;8.19;62.52
70323;BME280;57735;56.264;43.898;2022-10-17T13:31:53;101280.69;;;8.18;63.07
70323;BME280;57735;56.264;43.898;2022-10-17T13:34:25;101278.28;;;8.15;63.48
70323;BME280;57735;56.264;43.898;2022-10-17T13:36:59;101277.66;;;8.12;64.14
70323;BME280;57735;56.264;43.898;2022-10-17T13:39:36;101289.81;;;8.03;65.38
70323;BME280;57735;56.264;43.898;2022-10-17T13:42:29;101293.47;;;7.89;66.67
70323;BME280;57735;56.264;43.898;2022-10-17T13:45:00;101292.59;;;7.78;67.38
70323;BME280;57735;56.264;43.898;2022-10-17T13:47:35;101297.13;;;7.64;68.61
70323;BME280;57735;56.264;43.898;2022-10-17T13:50:07;101291.00;;;7.51;69.37
70323;BME280;57735;56.264;43.898;2022-10-17T13:52:45;101297.06;;;7.41;70.28
70323;BME280;57735;56.264;43.898;2022-10-17T13:55:16;101293.94;;;7.35;71.23
70323;BME280;57735;56.264;43.898;2022-10-17T13:57:49;101279.28;;;7.30;71.85
70323;BME280;57735;56.264;43.898;2022-10-17T14:00:22;101288.63;;;7.23;72.54
70323;BME280;57735;56.264;43.898;2022-10-17T14:02:52;101291.41;;;7.21;72.98
70323;BME280;57735;56.264;43.898;2022-10-17T14:05:23;101287.28;;;7.17;73.25
70323;BME280;57735;56.264;43.898;2022-10-17T14:08:03;101286.56;;;7.15;73.48
70323;BME280;57735;56.264;43.898;2022-10-17T14:10:36;101285.69;;;7.15;73.95
70323;BME280;57735;56.264;43.898;2022-10-17T14:13:22;101278.06;;;7.10;73.76
70323;BME280;57735;56.264;43.898;2022-10-17T14:15:56;101273.94;;;7.06;73.85
70323;BME280;57735;56.264;43.898;2022-10-17T14:18:34;101259.34;;;7.00;74.26
70323;BME280;57735;56.264;43.898;2022-10-17T14:21:06;101263.03;;;6.98;74.70
70323;BME280;57735;56.264;43.898;2022-10-17T14:23:40;101257.22;;;6.93;75.12
70323;BME280;57735;56.264;43.898;2022-10-17T14:26:17;101256.69;;;6.88;75.05
70323;BME280;57735;56.264;43.898;2022-10-17T14:29:04;101257.66;;;6.87;75.59
70323;BME280;57735;56.264;43.898;2022-10-17T14:31:36;101258.81;;;6.83;76.00
70323;BME280;57735;56.264;43.898;2022-10-17T14:34:23;101252.78;;;6.81;76.14
70323;BME280;57735;56.264;43.898;2022-10-17T14:36:56;101248.66;;;6.77;75.98
70323;BME280;57735;56.264;43.898;2022-10-17T14:39:29;101241.44;;;6.79;76.53
70323;BME280;57735;56.264;43.898;2022-10-17T14:42:03;101235.63;;;6.74;76.26
70323;BME280;57735;56.264;43.898;2022-10-17T14:44:39;101234.75;;;6.73;76.56
70323;BME280;57735;56.264;43.898;2022-10-17T14:47:17;101231.25;;;6.73;76.64
70323;BME280;57735;56.264;43.898;2022-10-17T14:50:03;101230.41;;;6.72;76.74
70323;BME280;57735;56.264;43.898;2022-10-17T14:52:38;101239.09;;;6.74;76.59
70323;BME280;57735;56.264;43.898;2022-10-17T14:55:23;101232.75;;;6.77;76.63
70323;BME280;57735;56.264;43.898;2022-10-17T14:57:54;101237.31;;;6.75;76.59
70323;BME280;57735;56.264;43.898;2022-10-17T15:00:25;101243.34;;;6.77;76.59
70323;BME280;57735;56.264;43.898;2022-10-17T15:02:56;101240.69;;;6.77;76.76